sensor_id;sensor_type;location;lat;lon;timestamp;P1;durP1;ratioP1;P2;durP2;ratioP2
22849;SDS011;11591;44.792;10.358;2023-04-01T00:00:27;32.88;;;12.40;;
22849;SDS011;11591;44.792;10.358;2023-04-01T00:02:53;29.92;;;13.43;;
22849;SDS011;11591;44.792;10.358;2023-04-01T00:05:19;27.08;;;13.68;;
22849;SDS011;11591;44.792;10.358;2023-04-01T00:07:45;24.23;;;12.50;;
22849;SDS011;11591;44.792;10.358;2023-04-01T00:10:11;27.05;;;13.07;;
22849;SDS011;11591;44.792;10.358;2023-04-01T00:12:38;24.35;;;13.18;;
22849;SDS011;11591;44.792;10.358;2023-04-01T00:15:06;25.63;;;13.82;;
22849;SDS011;11591;44.792;10.358;2023-04-01T00:17:32;39.95;;;15.25;;
22849;SDS011;11591;44.792;10.358;2023-04-01T00:19:59;27.95;;;14.65;;
22849;SDS011;11591;44.792;10.358;2023-04-01T00:22:25;26.80;;;15.30;;
22849;SDS011;11591;44.792;10.358;2023-04-01T00:24:52;32.83;;;16.27;;
22849;SDS011;11591;44.792;10.358;2023-04-01T00:27:18;32.08;;;16.10;;
22849;SDS011;11591;44.792;10.358;2023-04-01T00:29:45;30.55;;;14.85;;
22849;SDS011;11591;44.792;10.358;2023-04-01T00:32:13;29.50;;;14.35;;
22849;SDS011;11591;44.792;10.358;2023-04-01T00:34:39;20.00;;;10.55;;
22849;SDS011;11591;44.792;10.358;2023-04-01T00:37:06;21.63;;;11.90;;
22849;SDS011;11591;44.792;10.358;2023-04-01T00:39:33;21.77;;;11.20;;
22849;SDS011;11591;44.792;10.358;2023-04-01T00:42:00;24.83;;;10.88;;
22849;SDS011;11591;44.792;10.358;2023-04-01T00:44:28;21.98;;;10.10;;
22849;SDS011;11591;44.792;10.358;2023-04-01T00:46:56;15.18;;;8.57;;
22849;SDS011;11591;44.792;10.358;2023-04-01T00:49:23;19.92;;;9.60;;
22849;SDS011;11591;44.792;10.358;2023-04-01T00:51:53;19.50;;;9.40;;
22849;SDS011;11591;44.792;10.358;2023-04-01T00:54:21;19.80;;;9.25;;
22849;SDS011;11591;44.792;10.358;2023-04-01T00:56:54;16.65;;;7.88;;
22849;SDS011;11591;44.792;10.358;2023-04-01T00:59:25;16.98;;;8.02;;
22849;SDS011;11591;44.792;10.358;2023-04-01T01:01:53;16.63;;;7.80;;
22849;SDS011;11591;44.792;10.358;2023-04-01T01:04:24;14.85;;;7.93;;
22849;SDS011;11591;44.792;10.358;2023-04-01T01:06:56;16.60;;;7.05;;
22849;SDS011;11591;44.792;10.358;2023-04-01T01:12:13;16.10;;;6.90;;
22849;SDS011;11591;44.792;10.358;2023-04-01T01:15:46;11.55;;;6.00;;
22849;SDS011;11591;44.792;10.358;2023-04-01T01:37:21;5.93;;;2.90;;
22849;SDS011;11591;44.792;10.358;2023-04-01T01:39:54;4.70;;;2.60;;
22849;SDS011;11591;44.792;10.358;2023-04-01T01:42:23;6.60;;;2.90;;
22849;SDS011;11591;44.792;10.358;2023-04-01T01:44:53;4.75;;;3.10;;
22849;SDS011;11591;44.792;10.358;2023-04-01T01:47:22;15.60;;;8.55;;
22849;SDS011;11591;44.792;10.358;2023-04-01T01:49:51;22.38;;;11.55;;
22849;SDS011;11591;44.792;10.358;2023-04-01T01:52:18;25.30;;;12.23;;
22849;SDS011;11591;44.792;10.358;2023-04-01T01:54:54;23.17;;;12.00;;
22849;SDS011;11591;44.792;10.358;2023-04-01T01:57:33;24.05;;;11.70;;
22849;SDS011;11591;44.792;10.358;2023-04-01T02:00:08;23.38;;;11.77;;
22849;SDS011;11591;44.792;10.358;2023-04-01T02:02:44;22.35;;;12.18;;
22849;SDS011;11591;44.792;10.358;2023-04-01T02:05:16;24.58;;;13.23;;
22849;SDS011;11591;44.792;10.358;2023-04-01T02:07:55;24.83;;;13.43;;
22849;SDS011;11591;44.792;10.358;2023-04-01T02:10:26;30.00;;;14.70;;
22849;SDS011;11591;44.792;10.358;2023-04-01T02:12:57;31.50;;;15.98;;
22849;SDS011;11591;44.792;10.358;2023-04-01T02:15:26;36.67;;;16.52;;
22849;SDS011;11591;44.792;10.358;2023-04-01T02:17:55;38.83;;;17.30;;
22849;SDS011;11591;44.792;10.358;2023-04-01T02:20:22;32.63;;;17.67;;
22849;SDS011;11591;44.792;10.358;2023-04-01T02:22:50;41.00;;;20.27;;
22849;SDS011;11591;44.792;10.358;2023-04-01T02:25:18;36.83;;;19.13;;
22849;SDS011;11591;44.792;10.358;2023-04-01T02:27:50;33.05;;;18.60;;
22849;SDS011;11591;44.792;10.358;2023-04-01T02:30:17;38.72;;;19.52;;
22849;SDS011;11591;44.792;10.358;2023-04-01T02:32:44;39.15;;;19.70;;
22849;SDS011;11591;44.792;10.358;2023-04-01T02:35:11;42.28;;;19.77;;
22849;SDS011;11591;44.792;10.358;2023-04-01T02:37:40;37.75;;;19.40;;
22849;SDS011;11591;44.792;10.358;2023-04-01T02:40:10;36.08;;;19.55;;
22849;SDS011;11591;44.792;10.358;2023-04-01T02:42:38;40.63;;;20.27;;
22849;SDS011;11591;44.792;10.358;2023-04-01T02:45:04;41.92;;;20.98;;
22849;SDS011;11591;44.792;10.358;2023-04-01T02:47:31;52.85;;;22.58;;
22849;SDS011;11591;44.792;10.358;2023-04-01T02:49:57;42.08;;;21.33;;
22849;SDS011;11591;44.792;10.358;2023-04-01T02:52:27;41.15;;;22.05;;
22849;SDS011;11591;44.792;10.358;2023-04-01T02:54:56;41.47;;;21.17;;
22849;SDS011;11591;44.792;10.358;2023-04-01T02:57:22;42.80;;;21.75;;
22849;SDS011;11591;44.792;10.358;2023-04-01T02:59:48;39.25;;;21.13;;
22849;SDS011;11591;44.792;10.358;2023-04-01T03:02:14;48.88;;;21.92;;
22849;SDS011;11591;44.792;10.358;2023-04-01T03:04:40;38.13;;;20.92;;
22849;SDS011;11591;44.792;10.358;2023-04-01T03:07:06;37.30;;;20.40;;
22849;SDS011;11591;44.792;10.358;2023-04-01T03:09:33;42.00;;;22.45;;
22849;SDS011;11591;44.792;10.358;2023-04-01T03:11:59;42.78;;;22.17;;
22849;SDS011;11591;44.792;10.358;2023-04-01T03:14:26;47.10;;;22.90;;
22849;SDS011;11591;44.792;10.358;2023-04-01T03:16:52;40.10;;;21.80;;
22849;SDS011;11591;44.792;10.358;2023-04-01T03:19:17;46.15;;;21.90;;
22849;SDS011;11591;44.792;10.358;2023-04-01T03:21:43;44.97;;;21.95;;
22849;SDS011;11591;44.792;10.358;2023-04-01T03:24:09;43.25;;;21.58;;
22849;SDS011;11591;44.792;10.358;2023-04-01T03:26:35;46.92;;;22.55;;
22849;SDS011;11591;44.792;10.358;2023-04-01T03:29:01;42.80;;;22.70;;
22849;SDS011;11591;44.792;10.358;2023-04-01T03:31:26;44.33;;;22.88;;
22849;SDS011;11591;44.792;10.358;2023-04-01T03:33:55;44.90;;;23.10;;
22849;SDS011;11591;44.792;10.358;2023-04-01T03:36:21;46.35;;;21.90;;
22849;SDS011;11591;44.792;10.358;2023-04-01T03:38:47;40.78;;;21.67;;
22849;SDS011;11591;44.792;10.358;2023-04-01T03:41:19;44.53;;;22.52;;
22849;SDS011;11591;44.792;10.358;2023-04-01T03:43:45;47.55;;;21.70;;
22849;SDS011;11591;44.792;10.358;2023-04-01T03:46:11;45.17;;;22.48;;
22849;SDS011;11591;44.792;10.358;2023-04-01T03:48:36;45.80;;;22.70;;
22849;SDS011;11591;44.792;10.358;2023-04-01T03:51:06;48.45;;;21.80;;
22849;SDS011;11591;44.792;10.358;2023-04-01T03:53:33;42.10;;;22.02;;
22849;SDS011;11591;44.792;10.358;2023-04-01T03:56:07;45.45;;;21.98;;
22849;SDS011;11591;44.792;10.358;2023-04-01T03:58:35;39.55;;;21.48;;
22849;SDS011;11591;44.792;10.358;2023-04-01T04:01:02;46.85;;;21.35;;
22849;SDS011;11591;44.792;10.358;2023-04-01T04:03:30;42.90;;;22.75;;
22849;SDS011;11591;44.792;10.358;2023-04-01T04:05:57;44.63;;;22.48;;
22849;SDS011;11591;44.792;10.358;2023-04-01T04:08:23;42.65;;;22.05;;
22849;SDS011;11591;44.792;10.358;2023-04-01T04:10:54;43.30;;;22.95;;
22849;SDS011;11591;44.792;10.358;2023-04-01T04:13:21;40.22;;;21.83;;
22849;SDS011;11591;44.792;10.358;2023-04-01T04:15:54;43.95;;;22.45;;
22849;SDS011;11591;44.792;10.358;2023-04-01T04:18:20;41.38;;;22.63;;
22849;SDS011;11591;44.792;10.358;2023-04-01T04:20:46;43.60;;;23.05;;
22849;SDS011;11591;44.792;10.358;2023-04-01T04:23:17;48.33;;;23.40;;
22849;SDS011;11591;44.792;10.358;2023-04-01T04:25:56;40.83;;;21.33;;
22849;SDS011;11591;44.792;10.358;2023-04-01T04:28:25;38.35;;;20.98;;
22849;SDS011;11591;44.792;10.358;2023-04-01T04:30:52;42.42;;;20.98;;
22849;SDS011;11591;44.792;10.358;2023-04-01T04:33:19;34.28;;;20.52;;
22849;SDS011;11591;44.792;10.358;2023-04-01T04:35:46;35.83;;;19.20;;
22849;SDS011;11591;44.792;10.358;2023-04-01T04:38:12;35.97;;;20.00;;
22849;SDS011;11591;44.792;10.358;2023-04-01T04:40:39;45.83;;;19.30;;
22849;SDS011;11591;44.792;10.358;2023-04-01T04:43:06;36.45;;;19.95;;
22849;SDS011;11591;44.792;10.358;2023-04-01T04:45:32;34.47;;;18.73;;
22849;SDS011;11591;44.792;10.358;2023-04-01T04:47:58;36.17;;;20.20;;
22849;SDS011;11591;44.792;10.358;2023-04-01T04:50:23;42.72;;;19.75;;
22849;SDS011;11591;44.792;10.358;2023-04-01T04:52:50;42.38;;;19.65;;
22849;SDS011;11591;44.792;10.358;2023-04-01T04:55:18;37.33;;;19.77;;
22849;SDS011;11591;44.792;10.358;2023-04-01T04:57:48;44.08;;;19.70;;
22849;SDS011;11591;44.792;10.358;2023-04-01T05:00:14;34.28;;;19.02;;
22849;SDS011;11591;44.792;10.358;2023-04-01T05:02:57;34.83;;;19.92;;
22849;SDS011;11591;44.792;10.358;2023-04-01T05:05:22;41.72;;;20.73;;
22849;SDS011;11591;44.792;10.358;2023-04-01T05:07:48;34.50;;;19.35;;
22849;SDS011;11591;44.792;10.358;2023-04-01T05:10:14;36.65;;;19.00;;
22849;SDS011;11591;44.792;10.358;2023-04-01T05:12:40;47.53;;;19.75;;
22849;SDS011;11591;44.792;10.358;2023-04-01T05:15:08;37.38;;;18.83;;
22849;SDS011;11591;44.792;10.358;2023-04-01T05:17:35;42.33;;;19.98;;
22849;SDS011;11591;44.792;10.358;2023-04-01T05:20:02;40.10;;;18.80;;
22849;SDS011;11591;44.792;10.358;2023-04-01T05:22:28;34.65;;;18.85;;
22849;SDS011;11591;44.792;10.358;2023-04-01T05:24:54;39.72;;;19.15;;
22849;SDS011;11591;44.792;10.358;2023-04-01T05:27:21;38.88;;;18.63;;
22849;SDS011;11591;44.792;10.358;2023-04-01T05:29:47;34.03;;;17.55;;
22849;SDS011;11591;44.792;10.358;2023-04-01T05:32:33;39.33;;;18.90;;
22849;SDS011;11591;44.792;10.358;2023-04-01T05:34:59;40.72;;;19.15;;
22849;SDS011;11591;44.792;10.358;2023-04-01T05:37:25;35.78;;;18.40;;
22849;SDS011;11591;44.792;10.358;2023-04-01T05:39:51;35.25;;;18.27;;
22849;SDS011;11591;44.792;10.358;2023-04-01T05:42:17;39.58;;;18.17;;
22849;SDS011;11591;44.792;10.358;2023-04-01T05:44:43;40.15;;;19.17;;
22849;SDS011;11591;44.792;10.358;2023-04-01T05:47:38;36.75;;;17.98;;
22849;SDS011;11591;44.792;10.358;2023-04-01T05:50:04;41.15;;;19.20;;
22849;SDS011;11591;44.792;10.358;2023-04-01T05:52:30;33.33;;;18.63;;
22849;SDS011;11591;44.792;10.358;2023-04-01T05:54:56;33.78;;;18.48;;
22849;SDS011;11591;44.792;10.358;2023-04-01T05:57:22;36.08;;;18.75;;
22849;SDS011;11591;44.792;10.358;2023-04-01T05:59:48;32.50;;;18.13;;
22849;SDS011;11591;44.792;10.358;2023-04-01T06:02:16;38.38;;;18.80;;
22849;SDS011;11591;44.792;10.358;2023-04-01T06:04:42;37.63;;;18.98;;
22849;SDS011;11591;44.792;10.358;2023-04-01T06:07:12;41.95;;;18.88;;
22849;SDS011;11591;44.792;10.358;2023-04-01T06:09:40;34.80;;;18.13;;
22849;SDS011;11591;44.792;10.358;2023-04-01T06:12:17;39.28;;;18.90;;
22849;SDS011;11591;44.792;10.358;2023-04-01T06:15:23;39.05;;;19.45;;
22849;SDS011;11591;44.792;10.358;2023-04-01T06:21:12;34.00;;;18.08;;
22849;SDS011;11591;44.792;10.358;2023-04-01T06:34:56;36.33;;;17.05;;
22849;SDS011;11591;44.792;10.358;2023-04-01T06:43:41;19.58;;;9.73;;
22849;SDS011;11591;44.792;10.358;2023-04-01T06:50:24;10.32;;;4.20;;
22849;SDS011;11591;44.792;10.358;2023-04-01T06:53:15;10.20;;;3.45;;
22849;SDS011;11591;44.792;10.358;2023-04-01T06:56:40;4.15;;;2.75;;
22849;SDS011;11591;44.792;10.358;2023-04-01T06:59:22;6.65;;;3.10;;
22849;SDS011;11591;44.792;10.358;2023-04-01T07:02:11;8.68;;;2.80;;
22849;SDS011;11591;44.792;10.358;2023-04-01T07:05:02;6.40;;;2.90;;
22849;SDS011;11591;44.792;10.358;2023-04-01T07:07:43;5.07;;;3.00;;
22849;SDS011;11591;44.792;10.358;2023-04-01T07:10:19;5.03;;;2.90;;
22849;SDS011;11591;44.792;10.358;2023-04-01T07:16:38;5.75;;;2.70;;
22849;SDS011;11591;44.792;10.358;2023-04-01T07:22:32;5.95;;;3.10;;
22849;SDS011;11591;44.792;10.358;2023-04-01T07:25:15;8.90;;;3.55;;
22849;SDS011;11591;44.792;10.358;2023-04-01T07:28:12;6.15;;;3.05;;
22849;SDS011;11591;44.792;10.358;2023-04-01T07:33:52;10.20;;;4.85;;
22849;SDS011;11591;44.792;10.358;2023-04-01T07:36:39;13.75;;;5.65;;
22849;SDS011;11591;44.792;10.358;2023-04-01T07:44:50;10.52;;;5.63;;
22849;SDS011;11591;44.792;10.358;2023-04-01T07:47:53;9.93;;;5.07;;
22849;SDS011;11591;44.792;10.358;2023-04-01T07:50:34;9.27;;;5.18;;
22849;SDS011;11591;44.792;10.358;2023-04-01T07:53:16;11.23;;;5.15;;
22849;SDS011;11591;44.792;10.358;2023-04-01T07:56:07;4.65;;;2.42;;
22849;SDS011;11591;44.792;10.358;2023-04-01T07:58:52;5.57;;;2.33;;
22849;SDS011;11591;44.792;10.358;2023-04-01T08:01:48;6.72;;;2.10;;
22849;SDS011;11591;44.792;10.358;2023-04-01T08:04:23;3.42;;;2.22;;
22849;SDS011;11591;44.792;10.358;2023-04-01T08:10:40;8.02;;;3.15;;
22849;SDS011;11591;44.792;10.358;2023-04-01T08:22:27;10.27;;;3.30;;
22849;SDS011;11591;44.792;10.358;2023-04-01T08:25:02;8.10;;;3.25;;
22849;SDS011;11591;44.792;10.358;2023-04-01T08:27:39;7.80;;;3.53;;
22849;SDS011;11591;44.792;10.358;2023-04-01T08:30:16;11.85;;;3.55;;
22849;SDS011;11591;44.792;10.358;2023-04-01T08:32:59;6.07;;;3.17;;
22849;SDS011;11591;44.792;10.358;2023-04-01T08:38:19;12.85;;;3.95;;
22849;SDS011;11591;44.792;10.358;2023-04-01T08:49:32;8.10;;;3.85;;
22849;SDS011;11591;44.792;10.358;2023-04-01T08:52:36;12.07;;;6.28;;
22849;SDS011;11591;44.792;10.358;2023-04-01T09:18:47;27.02;;;12.05;;
22849;SDS011;11591;44.792;10.358;2023-04-01T09:21:24;17.30;;;10.82;;
22849;SDS011;11591;44.792;10.358;2023-04-01T09:24:14;23.98;;;11.50;;
22849;SDS011;11591;44.792;10.358;2023-04-01T09:34:57;20.45;;;10.80;;
22849;SDS011;11591;44.792;10.358;2023-04-01T09:45:43;15.10;;;7.85;;
22849;SDS011;11591;44.792;10.358;2023-04-01T09:50:57;15.48;;;8.88;;
22849;SDS011;11591;44.792;10.358;2023-04-01T10:08:06;15.45;;;7.10;;
22849;SDS011;11591;44.792;10.358;2023-04-01T10:10:32;12.73;;;7.35;;
22849;SDS011;11591;44.792;10.358;2023-04-01T10:28:10;10.77;;;6.15;;
22849;SDS011;11591;44.792;10.358;2023-04-01T10:36:52;7.47;;;3.70;;
22849;SDS011;11591;44.792;10.358;2023-04-01T10:42:49;6.05;;;2.75;;
22849;SDS011;11591;44.792;10.358;2023-04-01T10:51:15;5.50;;;1.83;;
22849;SDS011;11591;44.792;10.358;2023-04-01T10:54:09;3.63;;;2.03;;
22849;SDS011;11591;44.792;10.358;2023-04-01T10:56:59;10.57;;;1.80;;
22849;SDS011;11591;44.792;10.358;2023-04-01T11:00:02;3.25;;;1.27;;
22849;SDS011;11591;44.792;10.358;2023-04-01T11:17:40;2.63;;;0.20;;
22849;SDS011;11591;44.792;10.358;2023-04-01T11:29:41;0.50;;;0.10;;
22849;SDS011;11591;44.792;10.358;2023-04-01T11:34:55;0.40;;;0.20;;
22849;SDS011;11591;44.792;10.358;2023-04-01T11:37:36;0.10;;;0.00;;
22849;SDS011;11591;44.792;10.358;2023-04-01T11:40:29;0.10;;;0.10;;
22849;SDS011;11591;44.792;10.358;2023-04-01T11:43:38;1.75;;;0.10;;
22849;SDS011;11591;44.792;10.358;2023-04-01T11:46:31;0.82;;;0.20;;
22849;SDS011;11591;44.792;10.358;2023-04-01T12:05:37;0.43;;;0.13;;
22849;SDS011;11591;44.792;10.358;2023-04-01T12:11:20;0.20;;;0.10;;
22849;SDS011;11591;44.792;10.358;2023-04-01T12:19:54;0.40;;;0.13;;
22849;SDS011;11591;44.792;10.358;2023-04-01T12:33:48;0.32;;;0.20;;
22849;SDS011;11591;44.792;10.358;2023-04-01T12:50:43;0.20;;;0.13;;
22849;SDS011;11591;44.792;10.358;2023-04-01T12:56:14;0.17;;;0.10;;
22849;SDS011;11591;44.792;10.358;2023-04-01T13:12:45;0.35;;;0.30;;
22849;SDS011;11591;44.792;10.358;2023-04-01T13:23:46;1.27;;;0.30;;
22849;SDS011;11591;44.792;10.358;2023-04-01T13:26:34;0.10;;;0.10;;
22849;SDS011;11591;44.792;10.358;2023-04-01T13:29:15;0.17;;;0.17;;
22849;SDS011;11591;44.792;10.358;2023-04-01T13:37:54;1.25;;;0.20;;
22849;SDS011;11591;44.792;10.358;2023-04-01T13:40:48;0.77;;;0.15;;
22849;SDS011;11591;44.792;10.358;2023-04-01T13:43:58;1.10;;;0.28;;
22849;SDS011;11591;44.792;10.358;2023-04-01T13:54:51;0.45;;;0.20;;
22849;SDS011;11591;44.792;10.358;2023-04-01T13:57:27;3.10;;;0.30;;
22849;SDS011;11591;44.792;10.358;2023-04-01T14:00:20;0.63;;;0.35;;
22849;SDS011;11591;44.792;10.358;2023-04-01T14:03:13;0.57;;;0.30;;
22849;SDS011;11591;44.792;10.358;2023-04-01T14:08:55;1.25;;;0.20;;
22849;SDS011;11591;44.792;10.358;2023-04-01T14:28:06;0.10;;;0.10;;
22849;SDS011;11591;44.792;10.358;2023-04-01T14:33:38;2.42;;;0.10;;
22849;SDS011;11591;44.792;10.358;2023-04-01T14:47:50;0.10;;;0.10;;
22849;SDS011;11591;44.792;10.358;2023-04-01T14:50:25;0.40;;;0.20;;
22849;SDS011;11591;44.792;10.358;2023-04-01T14:52:59;0.20;;;0.20;;
22849;SDS011;11591;44.792;10.358;2023-04-01T14:58:12;2.75;;;0.10;;
22849;SDS011;11591;44.792;10.358;2023-04-01T15:03:36;0.28;;;0.17;;
22849;SDS011;11591;44.792;10.358;2023-04-01T15:14:13;0.65;;;0.40;;
22849;SDS011;11591;44.792;10.358;2023-04-01T15:22:37;1.08;;;0.22;;
22849;SDS011;11591;44.792;10.358;2023-04-01T15:39:09;0.20;;;0.20;;
22849;SDS011;11591;44.792;10.358;2023-04-01T15:50:53;0.30;;;0.20;;
22849;SDS011;11591;44.792;10.358;2023-04-01T15:52:56;0.20;;;0.20;;
22849;SDS011;11591;44.792;10.358;2023-04-01T15:58:44;0.50;;;0.30;;
22849;SDS011;11591;44.792;10.358;2023-04-01T16:18:40;2.72;;;0.32;;
22849;SDS011;11591;44.792;10.358;2023-04-01T16:29:56;2.17;;;0.38;;
22849;SDS011;11591;44.792;10.358;2023-04-01T16:32:46;1.42;;;0.50;;
22849;SDS011;11591;44.792;10.358;2023-04-01T16:38:19;0.75;;;0.30;;
22849;SDS011;11591;44.792;10.358;2023-04-01T16:43:45;2.78;;;0.63;;
22849;SDS011;11591;44.792;10.358;2023-04-01T16:54:19;1.17;;;0.40;;
22849;SDS011;11591;44.792;10.358;2023-04-01T16:56:55;3.10;;;0.70;;
22849;SDS011;11591;44.792;10.358;2023-04-01T16:59:41;1.65;;;0.50;;
22849;SDS011;11591;44.792;10.358;2023-04-01T17:02:11;1.90;;;0.50;;
22849;SDS011;11591;44.792;10.358;2023-04-01T17:20:50;3.08;;;0.40;;
22849;SDS011;11591;44.792;10.358;2023-04-01T17:31:53;2.08;;;0.80;;
22849;SDS011;11591;44.792;10.358;2023-04-01T17:40:31;4.35;;;1.00;;
22849;SDS011;11591;44.792;10.358;2023-04-01T17:45:28;2.58;;;0.90;;
22849;SDS011;11591;44.792;10.358;2023-04-01T17:51:04;2.72;;;0.95;;
22849;SDS011;11591;44.792;10.358;2023-04-01T17:59:49;4.97;;;1.17;;
22849;SDS011;11591;44.792;10.358;2023-04-01T18:02:50;1.65;;;0.88;;
22849;SDS011;11591;44.792;10.358;2023-04-01T18:19:28;4.90;;;1.45;;
22849;SDS011;11591;44.792;10.358;2023-04-01T18:32:54;6.88;;;1.23;;
22849;SDS011;11591;44.792;10.358;2023-04-01T18:38:28;3.50;;;0.98;;
22849;SDS011;11591;44.792;10.358;2023-04-01T18:49:41;7.22;;;1.58;;
22849;SDS011;11591;44.792;10.358;2023-04-01T18:52:43;4.53;;;1.27;;
22849;SDS011;11591;44.792;10.358;2023-04-01T18:58:17;4.55;;;1.30;;
22849;SDS011;11591;44.792;10.358;2023-04-01T19:01:11;5.85;;;1.20;;
22849;SDS011;11591;44.792;10.358;2023-04-01T19:03:52;3.58;;;1.30;;
22849;SDS011;11591;44.792;10.358;2023-04-01T19:06:27;5.45;;;1.45;;
22849;SDS011;11591;44.792;10.358;2023-04-01T19:08:59;4.72;;;1.50;;
22849;SDS011;11591;44.792;10.358;2023-04-01T19:25:02;3.28;;;1.15;;
22849;SDS011;11591;44.792;10.358;2023-04-01T19:28:02;3.10;;;1.00;;
22849;SDS011;11591;44.792;10.358;2023-04-01T19:39:09;6.40;;;1.67;;
22849;SDS011;11591;44.792;10.358;2023-04-01T19:42:06;3.08;;;1.67;;
22849;SDS011;11591;44.792;10.358;2023-04-01T19:44:50;5.07;;;1.38;;
22849;SDS011;11591;44.792;10.358;2023-04-01T19:50:10;4.45;;;1.13;;
22849;SDS011;11591;44.792;10.358;2023-04-01T19:52:50;3.25;;;0.90;;
22849;SDS011;11591;44.792;10.358;2023-04-01T20:00:55;3.70;;;1.08;;
22849;SDS011;11591;44.792;10.358;2023-04-01T20:19:26;4.32;;;1.30;;
22849;SDS011;11591;44.792;10.358;2023-04-01T20:22:00;4.55;;;1.50;;
22849;SDS011;11591;44.792;10.358;2023-04-01T20:24:51;6.60;;;1.45;;
22849;SDS011;11591;44.792;10.358;2023-04-01T20:27:20;5.57;;;1.70;;
22849;SDS011;11591;44.792;10.358;2023-04-01T20:40:52;4.32;;;1.15;;
22849;SDS011;11591;44.792;10.358;2023-04-01T20:43:46;3.90;;;1.08;;
22849;SDS011;11591;44.792;10.358;2023-04-01T20:55:13;4.88;;;1.80;;
22849;SDS011;11591;44.792;10.358;2023-04-01T21:13:02;5.80;;;1.48;;
22849;SDS011;11591;44.792;10.358;2023-04-01T21:29:16;4.40;;;1.30;;
22849;SDS011;11591;44.792;10.358;2023-04-01T21:40:53;5.03;;;1.10;;
22849;SDS011;11591;44.792;10.358;2023-04-01T21:43:48;4.00;;;1.00;;
22849;SDS011;11591;44.792;10.358;2023-04-01T21:54:57;4.60;;;0.88;;
22849;SDS011;11591;44.792;10.358;2023-04-01T22:06:42;8.43;;;1.27;;
22849;SDS011;11591;44.792;10.358;2023-04-01T22:09:35;4.38;;;0.60;;
22849;SDS011;11591;44.792;10.358;2023-04-01T22:15:06;3.50;;;1.17;;
22849;SDS011;11591;44.792;10.358;2023-04-01T22:17:42;7.90;;;1.10;;
22849;SDS011;11591;44.792;10.358;2023-04-01T22:23:12;6.20;;;1.13;;
22849;SDS011;11591;44.792;10.358;2023-04-01T22:31:23;5.63;;;1.35;;
22849;SDS011;11591;44.792;10.358;2023-04-01T22:37:04;4.22;;;0.95;;
22849;SDS011;11591;44.792;10.358;2023-04-01T22:39:44;5.65;;;1.20;;
22849;SDS011;11591;44.792;10.358;2023-04-01T22:45:23;6.25;;;1.13;;
22849;SDS011;11591;44.792;10.358;2023-04-01T22:48:11;7.72;;;1.20;;
22849;SDS011;11591;44.792;10.358;2023-04-01T22:56:57;4.18;;;1.05;;
22849;SDS011;11591;44.792;10.358;2023-04-01T22:59:35;8.23;;;1.23;;
22849;SDS011;11591;44.792;10.358;2023-04-01T23:02:07;8.80;;;1.00;;
22849;SDS011;11591;44.792;10.358;2023-04-01T23:04:48;5.90;;;1.20;;
22849;SDS011;11591;44.792;10.358;2023-04-01T23:10:02;7.47;;;1.02;;
22849;SDS011;11591;44.792;10.358;2023-04-01T23:12:37;2.47;;;0.70;;
22849;SDS011;11591;44.792;10.358;2023-04-01T23:15:10;2.55;;;0.80;;
22849;SDS011;11591;44.792;10.358;2023-04-01T23:20:28;4.10;;;1.00;;
22849;SDS011;11591;44.792;10.358;2023-04-01T23:26:10;8.35;;;1.38;;
22849;SDS011;11591;44.792;10.358;2023-04-01T23:33:53;5.32;;;1.85;;
22849;SDS011;11591;44.792;10.358;2023-04-01T23:36:24;5.72;;;1.60;;
22849;SDS011;11591;44.792;10.358;2023-04-01T23:38:51;7.40;;;1.15;;
22849;SDS011;11591;44.792;10.358;2023-04-01T23:43:55;2.47;;;0.90;;
22849;SDS011;11591;44.792;10.358;2023-04-01T23:46:25;7.45;;;1.30;;
22849;SDS011;11591;44.792;10.358;2023-04-01T23:48:51;8.18;;;1.50;;
22849;SDS011;11591;44.792;10.358;2023-04-01T23:51:20;4.15;;;1.10;;
22849;SDS011;11591;44.792;10.358;2023-04-01T23:53:55;4.28;;;1.10;;
22849;SDS011;11591;44.792;10.358;2023-04-01T23:56:59;6.90;;;1.50;;
22849;SDS011;11591;44.792;10.358;2023-04-01T23:59:30;8.77;;;1.23;;
